sensor_id;sensor_type;location;lat;lon;timestamp;P1;durP1;ratioP1;P2;durP2;ratioP2
73859;SDS011;62197;51.632;13.700;2023-06-10T00:01:38;5.72;;;3.90;;
73859;SDS011;62197;51.632;13.700;2023-06-10T00:04:04;10.07;;;4.70;;
73859;SDS011;62197;51.632;13.700;2023-06-10T00:06:29;8.00;;;4.15;;
73859;SDS011;62197;51.632;13.700;2023-06-10T00:09:04;6.35;;;4.20;;
73859;SDS011;62197;51.632;13.700;2023-06-10T00:11:33;9.13;;;4.63;;
73859;SDS011;62197;51.632;13.700;2023-06-10T00:13:58;10.52;;;4.45;;
73859;SDS011;62197;51.632;13.700;2023-06-10T00:16:24;5.95;;;4.30;;
73859;SDS011;62197;51.632;13.700;2023-06-10T00:18:50;9.48;;;4.05;;
73859;SDS011;62197;51.632;13.700;2023-06-10T00:21:16;7.82;;;4.82;;
73859;SDS011;62197;51.632;13.700;2023-06-10T00:23:41;8.05;;;4.72;;
73859;SDS011;62197;51.632;13.700;2023-06-10T00:26:07;7.68;;;4.65;;
73859;SDS011;62197;51.632;13.700;2023-06-10T00:28:33;8.02;;;4.70;;
73859;SDS011;62197;51.632;13.700;2023-06-10T00:30:58;6.07;;;4.25;;
73859;SDS011;62197;51.632;13.700;2023-06-10T00:33:23;10.85;;;5.00;;
73859;SDS011;62197;51.632;13.700;2023-06-10T00:35:49;9.88;;;4.85;;
73859;SDS011;62197;51.632;13.700;2023-06-10T00:38:14;6.45;;;4.00;;
73859;SDS011;62197;51.632;13.700;2023-06-10T00:40:40;9.23;;;5.47;;
73859;SDS011;62197;51.632;13.700;2023-06-10T00:43:06;9.30;;;5.75;;
73859;SDS011;62197;51.632;13.700;2023-06-10T00:45:31;13.35;;;5.60;;
73859;SDS011;62197;51.632;13.700;2023-06-10T00:47:57;9.00;;;5.72;;
73859;SDS011;62197;51.632;13.700;2023-06-10T00:50:23;8.90;;;4.95;;
73859;SDS011;62197;51.632;13.700;2023-06-10T00:52:48;9.90;;;5.20;;
73859;SDS011;62197;51.632;13.700;2023-06-10T00:55:16;9.93;;;5.05;;
73859;SDS011;62197;51.632;13.700;2023-06-10T00:57:43;9.13;;;4.90;;
73859;SDS011;62197;51.632;13.700;2023-06-10T01:00:10;11.88;;;5.38;;
73859;SDS011;62197;51.632;13.700;2023-06-10T01:02:37;8.73;;;5.60;;
73859;SDS011;62197;51.632;13.700;2023-06-10T01:05:03;12.15;;;5.88;;
73859;SDS011;62197;51.632;13.700;2023-06-10T01:07:31;9.15;;;4.90;;
73859;SDS011;62197;51.632;13.700;2023-06-10T01:15:13;9.75;;;5.90;;
73859;SDS011;62197;51.632;13.700;2023-06-10T01:18:11;10.85;;;5.80;;
73859;SDS011;62197;51.632;13.700;2023-06-10T01:20:32;8.88;;;5.53;;
73859;SDS011;62197;51.632;13.700;2023-06-10T01:22:58;10.88;;;5.40;;
73859;SDS011;62197;51.632;13.700;2023-06-10T01:25:25;11.60;;;5.95;;
73859;SDS011;62197;51.632;13.700;2023-06-10T01:27:55;15.52;;;6.18;;
73859;SDS011;62197;51.632;13.700;2023-06-10T01:30:29;8.93;;;6.53;;
73859;SDS011;62197;51.632;13.700;2023-06-10T01:33:02;11.23;;;5.97;;
73859;SDS011;62197;51.632;13.700;2023-06-10T01:35:31;10.50;;;6.28;;
73859;SDS011;62197;51.632;13.700;2023-06-10T01:37:56;11.13;;;6.30;;
73859;SDS011;62197;51.632;13.700;2023-06-10T01:40:23;11.52;;;5.90;;
73859;SDS011;62197;51.632;13.700;2023-06-10T01:42:50;9.98;;;6.22;;
73859;SDS011;62197;51.632;13.700;2023-06-10T01:45:17;10.02;;;6.18;;
73859;SDS011;62197;51.632;13.700;2023-06-10T01:47:42;9.25;;;5.53;;
73859;SDS011;62197;51.632;13.700;2023-06-10T01:50:07;10.35;;;5.90;;
73859;SDS011;62197;51.632;13.700;2023-06-10T01:52:33;10.45;;;5.72;;
73859;SDS011;62197;51.632;13.700;2023-06-10T01:54:58;10.52;;;6.07;;
73859;SDS011;62197;51.632;13.700;2023-06-10T01:57:24;11.48;;;5.95;;
73859;SDS011;62197;51.632;13.700;2023-06-10T01:59:49;10.38;;;6.70;;
73859;SDS011;62197;51.632;13.700;2023-06-10T02:02:15;9.70;;;6.20;;
73859;SDS011;62197;51.632;13.700;2023-06-10T02:04:40;10.75;;;6.45;;
73859;SDS011;62197;51.632;13.700;2023-06-10T02:07:06;9.82;;;6.03;;
73859;SDS011;62197;51.632;13.700;2023-06-10T02:09:31;11.00;;;6.63;;
73859;SDS011;62197;51.632;13.700;2023-06-10T02:11:59;14.77;;;7.97;;
73859;SDS011;62197;51.632;13.700;2023-06-10T02:14:25;11.65;;;6.60;;
73859;SDS011;62197;51.632;13.700;2023-06-10T02:16:50;11.73;;;6.88;;
73859;SDS011;62197;51.632;13.700;2023-06-10T02:19:16;11.60;;;7.13;;
73859;SDS011;62197;51.632;13.700;2023-06-10T02:21:42;11.10;;;7.00;;
73859;SDS011;62197;51.632;13.700;2023-06-10T02:24:07;13.18;;;6.40;;
73859;SDS011;62197;51.632;13.700;2023-06-10T02:26:33;10.30;;;6.78;;
73859;SDS011;62197;51.632;13.700;2023-06-10T02:28:58;10.55;;;6.57;;
73859;SDS011;62197;51.632;13.700;2023-06-10T02:31:24;11.88;;;6.50;;
73859;SDS011;62197;51.632;13.700;2023-06-10T02:33:50;12.88;;;7.28;;
73859;SDS011;62197;51.632;13.700;2023-06-10T02:36:15;12.23;;;7.55;;
73859;SDS011;62197;51.632;13.700;2023-06-10T02:38:41;11.35;;;7.13;;
73859;SDS011;62197;51.632;13.700;2023-06-10T02:41:07;9.68;;;6.60;;
73859;SDS011;62197;51.632;13.700;2023-06-10T02:43:32;12.40;;;6.38;;
73859;SDS011;62197;51.632;13.700;2023-06-10T02:45:57;13.05;;;6.88;;
73859;SDS011;62197;51.632;13.700;2023-06-10T02:48:23;11.60;;;7.10;;
73859;SDS011;62197;51.632;13.700;2023-06-10T02:50:49;16.13;;;8.88;;
73859;SDS011;62197;51.632;13.700;2023-06-10T02:53:14;12.30;;;7.80;;
73859;SDS011;62197;51.632;13.700;2023-06-10T02:55:40;19.67;;;8.55;;
73859;SDS011;62197;51.632;13.700;2023-06-10T02:58:05;13.88;;;7.00;;
73859;SDS011;62197;51.632;13.700;2023-06-10T03:00:32;13.35;;;8.07;;
73859;SDS011;62197;51.632;13.700;2023-06-10T03:02:58;10.80;;;7.68;;
73859;SDS011;62197;51.632;13.700;2023-06-10T03:05:28;15.60;;;9.20;;
73859;SDS011;62197;51.632;13.700;2023-06-10T03:07:54;13.20;;;7.35;;
73859;SDS011;62197;51.632;13.700;2023-06-10T03:10:19;11.82;;;7.80;;
73859;SDS011;62197;51.632;13.700;2023-06-10T03:12:45;13.70;;;7.82;;
73859;SDS011;62197;51.632;13.700;2023-06-10T03:15:10;13.25;;;8.13;;
73859;SDS011;62197;51.632;13.700;2023-06-10T03:17:35;16.80;;;7.68;;
73859;SDS011;62197;51.632;13.700;2023-06-10T03:20:01;16.48;;;8.18;;
73859;SDS011;62197;51.632;13.700;2023-06-10T03:22:28;12.63;;;7.97;;
73859;SDS011;62197;51.632;13.700;2023-06-10T03:24:53;11.93;;;7.57;;
73859;SDS011;62197;51.632;13.700;2023-06-10T03:27:19;16.83;;;8.57;;
73859;SDS011;62197;51.632;13.700;2023-06-10T03:29:45;13.63;;;7.82;;
73859;SDS011;62197;51.632;13.700;2023-06-10T03:32:10;17.33;;;7.90;;
73859;SDS011;62197;51.632;13.700;2023-06-10T03:34:36;13.27;;;8.18;;
73859;SDS011;62197;51.632;13.700;2023-06-10T03:37:01;13.77;;;8.35;;
73859;SDS011;62197;51.632;13.700;2023-06-10T03:39:27;11.63;;;8.68;;
73859;SDS011;62197;51.632;13.700;2023-06-10T03:41:54;12.60;;;7.80;;
73859;SDS011;62197;51.632;13.700;2023-06-10T03:44:20;12.48;;;7.82;;
73859;SDS011;62197;51.632;13.700;2023-06-10T03:46:45;12.38;;;7.60;;
73859;SDS011;62197;51.632;13.700;2023-06-10T03:49:12;12.00;;;7.57;;
73859;SDS011;62197;51.632;13.700;2023-06-10T03:51:37;11.77;;;7.30;;
73859;SDS011;62197;51.632;13.700;2023-06-10T03:54:03;15.23;;;8.23;;
73859;SDS011;62197;51.632;13.700;2023-06-10T03:56:28;13.60;;;8.90;;
73859;SDS011;62197;51.632;13.700;2023-06-10T03:58:54;10.13;;;7.50;;
73859;SDS011;62197;51.632;13.700;2023-06-10T04:01:20;12.43;;;7.10;;
73859;SDS011;62197;51.632;13.700;2023-06-10T04:03:46;11.45;;;7.25;;
73859;SDS011;62197;51.632;13.700;2023-06-10T04:06:13;12.15;;;7.95;;
73859;SDS011;62197;51.632;13.700;2023-06-10T04:08:39;16.77;;;7.45;;
73859;SDS011;62197;51.632;13.700;2023-06-10T04:11:04;15.63;;;7.25;;
73859;SDS011;62197;51.632;13.700;2023-06-10T04:13:29;14.43;;;7.88;;
73859;SDS011;62197;51.632;13.700;2023-06-10T04:15:55;15.60;;;8.20;;
73859;SDS011;62197;51.632;13.700;2023-06-10T04:18:20;14.48;;;7.82;;
73859;SDS011;62197;51.632;13.700;2023-06-10T04:20:46;14.35;;;7.55;;
73859;SDS011;62197;51.632;13.700;2023-06-10T04:23:12;15.65;;;8.15;;
73859;SDS011;62197;51.632;13.700;2023-06-10T04:25:37;15.10;;;7.30;;
73859;SDS011;62197;51.632;13.700;2023-06-10T04:28:03;13.40;;;8.38;;
73859;SDS011;62197;51.632;13.700;2023-06-10T04:30:28;12.90;;;7.05;;
73859;SDS011;62197;51.632;13.700;2023-06-10T04:32:53;14.60;;;7.63;;
73859;SDS011;62197;51.632;13.700;2023-06-10T04:35:19;12.98;;;8.27;;
73859;SDS011;62197;51.632;13.700;2023-06-10T04:37:44;12.10;;;7.72;;
73859;SDS011;62197;51.632;13.700;2023-06-10T04:40:10;12.63;;;7.53;;
73859;SDS011;62197;51.632;13.700;2023-06-10T04:42:36;16.63;;;7.60;;
73859;SDS011;62197;51.632;13.700;2023-06-10T04:45:01;12.93;;;7.10;;
73859;SDS011;62197;51.632;13.700;2023-06-10T04:47:28;14.05;;;8.40;;
73859;SDS011;62197;51.632;13.700;2023-06-10T04:49:54;11.95;;;7.55;;
73859;SDS011;62197;51.632;13.700;2023-06-10T04:52:19;12.45;;;7.85;;
73859;SDS011;62197;51.632;13.700;2023-06-10T04:54:45;12.68;;;8.07;;
73859;SDS011;62197;51.632;13.700;2023-06-10T04:57:10;8.95;;;7.07;;
73859;SDS011;62197;51.632;13.700;2023-06-10T04:59:36;13.75;;;8.43;;
73859;SDS011;62197;51.632;13.700;2023-06-10T05:02:03;13.35;;;7.63;;
73859;SDS011;62197;51.632;13.700;2023-06-10T05:04:30;10.10;;;7.95;;
73859;SDS011;62197;51.632;13.700;2023-06-10T05:06:55;14.15;;;8.15;;
73859;SDS011;62197;51.632;13.700;2023-06-10T05:09:21;17.30;;;7.57;;
73859;SDS011;62197;51.632;13.700;2023-06-10T05:11:46;13.35;;;7.95;;
73859;SDS011;62197;51.632;13.700;2023-06-10T05:14:11;15.20;;;8.23;;
73859;SDS011;62197;51.632;13.700;2023-06-10T05:16:37;15.23;;;7.70;;
73859;SDS011;62197;51.632;13.700;2023-06-10T05:19:03;11.60;;;7.97;;
73859;SDS011;62197;51.632;13.700;2023-06-10T05:21:29;13.10;;;7.60;;
73859;SDS011;62197;51.632;13.700;2023-06-10T05:23:54;14.80;;;8.23;;
73859;SDS011;62197;51.632;13.700;2023-06-10T05:26:19;16.67;;;7.93;;
73859;SDS011;62197;51.632;13.700;2023-06-10T05:28:45;17.48;;;9.57;;
73859;SDS011;62197;51.632;13.700;2023-06-10T05:31:10;15.63;;;7.82;;
73859;SDS011;62197;51.632;13.700;2023-06-10T05:33:35;10.80;;;7.43;;
73859;SDS011;62197;51.632;13.700;2023-06-10T05:36:01;12.30;;;7.97;;
73859;SDS011;62197;51.632;13.700;2023-06-10T05:38:27;13.15;;;8.25;;
73859;SDS011;62197;51.632;13.700;2023-06-10T05:40:52;10.90;;;8.60;;
73859;SDS011;62197;51.632;13.700;2023-06-10T05:43:17;14.23;;;8.60;;
73859;SDS011;62197;51.632;13.700;2023-06-10T05:45:43;11.55;;;8.60;;
73859;SDS011;62197;51.632;13.700;2023-06-10T05:48:08;12.30;;;8.13;;
73859;SDS011;62197;51.632;13.700;2023-06-10T05:50:34;16.13;;;8.50;;
73859;SDS011;62197;51.632;13.700;2023-06-10T05:53:03;14.95;;;8.65;;
73859;SDS011;62197;51.632;13.700;2023-06-10T05:55:28;12.82;;;8.60;;
73859;SDS011;62197;51.632;13.700;2023-06-10T05:58:00;17.85;;;10.15;;
73859;SDS011;62197;51.632;13.700;2023-06-10T06:00:26;16.45;;;9.52;;
73859;SDS011;62197;51.632;13.700;2023-06-10T06:02:52;14.57;;;8.52;;
73859;SDS011;62197;51.632;13.700;2023-06-10T06:05:19;12.15;;;8.93;;
73859;SDS011;62197;51.632;13.700;2023-06-10T06:07:44;11.73;;;8.70;;
73859;SDS011;62197;51.632;13.700;2023-06-10T06:10:09;12.90;;;9.13;;
73859;SDS011;62197;51.632;13.700;2023-06-10T06:12:35;13.75;;;9.77;;
73859;SDS011;62197;51.632;13.700;2023-06-10T06:15:00;12.80;;;9.30;;
73859;SDS011;62197;51.632;13.700;2023-06-10T06:17:26;11.73;;;8.75;;
73859;SDS011;62197;51.632;13.700;2023-06-10T06:19:51;12.60;;;8.55;;
73859;SDS011;62197;51.632;13.700;2023-06-10T06:22:16;14.48;;;9.15;;
73859;SDS011;62197;51.632;13.700;2023-06-10T06:24:46;13.95;;;9.25;;
73859;SDS011;62197;51.632;13.700;2023-06-10T06:27:11;10.60;;;8.40;;
73859;SDS011;62197;51.632;13.700;2023-06-10T06:29:37;13.38;;;9.57;;
73859;SDS011;62197;51.632;13.700;2023-06-10T06:32:02;13.65;;;9.13;;
73859;SDS011;62197;51.632;13.700;2023-06-10T06:34:28;11.65;;;8.70;;
73859;SDS011;62197;51.632;13.700;2023-06-10T06:36:53;10.80;;;8.73;;
73859;SDS011;62197;51.632;13.700;2023-06-10T06:39:19;13.25;;;9.10;;
73859;SDS011;62197;51.632;13.700;2023-06-10T06:41:44;14.68;;;8.52;;
73859;SDS011;62197;51.632;13.700;2023-06-10T06:44:09;12.63;;;9.85;;
73859;SDS011;62197;51.632;13.700;2023-06-10T06:46:35;11.38;;;8.90;;
73859;SDS011;62197;51.632;13.700;2023-06-10T06:49:00;10.98;;;8.68;;
73859;SDS011;62197;51.632;13.700;2023-06-10T06:51:25;13.70;;;8.85;;
73859;SDS011;62197;51.632;13.700;2023-06-10T06:53:51;11.75;;;7.90;;
73859;SDS011;62197;51.632;13.700;2023-06-10T06:56:19;11.90;;;8.30;;
73859;SDS011;62197;51.632;13.700;2023-06-10T06:58:45;13.07;;;8.73;;
73859;SDS011;62197;51.632;13.700;2023-06-10T07:01:11;13.70;;;8.57;;
73859;SDS011;62197;51.632;13.700;2023-06-10T07:03:36;9.48;;;8.07;;
73859;SDS011;62197;51.632;13.700;2023-06-10T07:06:01;9.25;;;8.27;;
73859;SDS011;62197;51.632;13.700;2023-06-10T07:08:27;11.45;;;8.63;;
73859;SDS011;62197;51.632;13.700;2023-06-10T07:10:52;12.23;;;8.70;;
73859;SDS011;62197;51.632;13.700;2023-06-10T07:13:19;10.93;;;8.90;;
73859;SDS011;62197;51.632;13.700;2023-06-10T07:15:45;12.57;;;8.68;;
73859;SDS011;62197;51.632;13.700;2023-06-10T07:18:10;11.05;;;8.68;;
73859;SDS011;62197;51.632;13.700;2023-06-10T07:20:35;13.30;;;8.98;;
73859;SDS011;62197;51.632;13.700;2023-06-10T07:23:01;12.00;;;9.23;;
73859;SDS011;62197;51.632;13.700;2023-06-10T07:25:26;9.48;;;8.05;;
73859;SDS011;62197;51.632;13.700;2023-06-10T07:27:51;11.32;;;8.27;;
73859;SDS011;62197;51.632;13.700;2023-06-10T07:30:17;11.30;;;8.48;;
73859;SDS011;62197;51.632;13.700;2023-06-10T07:32:42;11.00;;;7.82;;
73859;SDS011;62197;51.632;13.700;2023-06-10T07:35:09;11.63;;;8.82;;
73859;SDS011;62197;51.632;13.700;2023-06-10T07:37:36;11.68;;;8.32;;
73859;SDS011;62197;51.632;13.700;2023-06-10T07:40:01;10.77;;;8.65;;
73859;SDS011;62197;51.632;13.700;2023-06-10T07:42:27;11.93;;;8.48;;
73859;SDS011;62197;51.632;13.700;2023-06-10T07:44:52;12.55;;;8.98;;
73859;SDS011;62197;51.632;13.700;2023-06-10T07:47:18;12.65;;;8.63;;
73859;SDS011;62197;51.632;13.700;2023-06-10T07:49:43;10.30;;;8.77;;
73859;SDS011;62197;51.632;13.700;2023-06-10T07:52:09;13.18;;;9.18;;
73859;SDS011;62197;51.632;13.700;2023-06-10T07:54:34;13.43;;;8.38;;
73859;SDS011;62197;51.632;13.700;2023-06-10T07:56:59;11.65;;;9.13;;
73859;SDS011;62197;51.632;13.700;2023-06-10T07:59:25;13.18;;;9.15;;
73859;SDS011;62197;51.632;13.700;2023-06-10T08:01:51;10.25;;;8.25;;
73859;SDS011;62197;51.632;13.700;2023-06-10T08:04:17;9.43;;;7.28;;
73859;SDS011;62197;51.632;13.700;2023-06-10T08:06:43;9.93;;;7.85;;
73859;SDS011;62197;51.632;13.700;2023-06-10T08:09:08;8.15;;;7.10;;
73859;SDS011;62197;51.632;13.700;2023-06-10T08:11:33;10.05;;;7.22;;
73859;SDS011;62197;51.632;13.700;2023-06-10T08:13:59;9.68;;;6.65;;
73859;SDS011;62197;51.632;13.700;2023-06-10T08:16:24;8.02;;;6.57;;
73859;SDS011;62197;51.632;13.700;2023-06-10T08:18:49;8.45;;;6.70;;
73859;SDS011;62197;51.632;13.700;2023-06-10T08:21:18;9.30;;;6.90;;
73859;SDS011;62197;51.632;13.700;2023-06-10T08:23:43;8.75;;;6.60;;
73859;SDS011;62197;51.632;13.700;2023-06-10T08:26:09;10.35;;;6.10;;
73859;SDS011;62197;51.632;13.700;2023-06-10T08:28:34;8.13;;;5.75;;
73859;SDS011;62197;51.632;13.700;2023-06-10T08:31:00;9.52;;;5.70;;
73859;SDS011;62197;51.632;13.700;2023-06-10T08:33:25;9.55;;;5.95;;
73859;SDS011;62197;51.632;13.700;2023-06-10T08:35:50;7.45;;;5.63;;
73859;SDS011;62197;51.632;13.700;2023-06-10T08:38:16;8.23;;;5.55;;
73859;SDS011;62197;51.632;13.700;2023-06-10T08:40:41;8.32;;;6.10;;
73859;SDS011;62197;51.632;13.700;2023-06-10T08:43:07;10.13;;;6.75;;
73859;SDS011;62197;51.632;13.700;2023-06-10T08:45:40;7.47;;;5.50;;
73859;SDS011;62197;51.632;13.700;2023-06-10T08:48:08;6.75;;;5.72;;
73859;SDS011;62197;51.632;13.700;2023-06-10T08:50:36;6.90;;;5.35;;
73859;SDS011;62197;51.632;13.700;2023-06-10T08:53:02;9.45;;;6.65;;
73859;SDS011;62197;51.632;13.700;2023-06-10T08:55:30;6.63;;;5.43;;
73859;SDS011;62197;51.632;13.700;2023-06-10T08:57:58;7.85;;;5.32;;
73859;SDS011;62197;51.632;13.700;2023-06-10T09:00:26;6.53;;;5.40;;
73859;SDS011;62197;51.632;13.700;2023-06-10T09:02:52;7.53;;;5.70;;
73859;SDS011;62197;51.632;13.700;2023-06-10T09:05:17;8.32;;;5.35;;
73859;SDS011;62197;51.632;13.700;2023-06-10T09:07:43;7.00;;;5.45;;
73859;SDS011;62197;51.632;13.700;2023-06-10T09:10:10;7.00;;;5.45;;
73859;SDS011;62197;51.632;13.700;2023-06-10T09:12:36;7.63;;;5.90;;
73859;SDS011;62197;51.632;13.700;2023-06-10T09:15:03;7.78;;;5.55;;
73859;SDS011;62197;51.632;13.700;2023-06-10T09:17:29;9.02;;;4.72;;
73859;SDS011;62197;51.632;13.700;2023-06-10T09:19:54;7.63;;;5.75;;
73859;SDS011;62197;51.632;13.700;2023-06-10T09:22:23;8.50;;;5.10;;
73859;SDS011;62197;51.632;13.700;2023-06-10T09:24:49;7.57;;;5.28;;
73859;SDS011;62197;51.632;13.700;2023-06-10T09:27:14;9.77;;;6.22;;
73859;SDS011;62197;51.632;13.700;2023-06-10T09:29:46;20.30;;;7.38;;
73859;SDS011;62197;51.632;13.700;2023-06-10T09:32:17;7.97;;;6.03;;
73859;SDS011;62197;51.632;13.700;2023-06-10T09:34:43;7.65;;;5.95;;
73859;SDS011;62197;51.632;13.700;2023-06-10T09:37:09;7.43;;;6.72;;
73859;SDS011;62197;51.632;13.700;2023-06-10T09:39:37;7.68;;;6.90;;
73859;SDS011;62197;51.632;13.700;2023-06-10T09:42:11;9.60;;;7.80;;
73859;SDS011;62197;51.632;13.700;2023-06-10T09:44:40;8.43;;;7.07;;
73859;SDS011;62197;51.632;13.700;2023-06-10T09:47:06;9.18;;;6.50;;
73859;SDS011;62197;51.632;13.700;2023-06-10T09:49:31;9.82;;;6.32;;
73859;SDS011;62197;51.632;13.700;2023-06-10T09:51:57;5.88;;;5.28;;
73859;SDS011;62197;51.632;13.700;2023-06-10T09:54:22;8.25;;;5.63;;
73859;SDS011;62197;51.632;13.700;2023-06-10T09:56:48;8.05;;;5.80;;
73859;SDS011;62197;51.632;13.700;2023-06-10T09:59:14;9.98;;;6.20;;
73859;SDS011;62197;51.632;13.700;2023-06-10T10:01:40;7.68;;;6.22;;
73859;SDS011;62197;51.632;13.700;2023-06-10T10:04:06;8.40;;;6.32;;
73859;SDS011;62197;51.632;13.700;2023-06-10T10:06:32;11.15;;;6.28;;
73859;SDS011;62197;51.632;13.700;2023-06-10T10:08:58;6.85;;;5.80;;
73859;SDS011;62197;51.632;13.700;2023-06-10T10:11:24;9.40;;;6.20;;
73859;SDS011;62197;51.632;13.700;2023-06-10T10:13:51;8.25;;;5.90;;
73859;SDS011;62197;51.632;13.700;2023-06-10T10:16:19;8.93;;;5.32;;
73859;SDS011;62197;51.632;13.700;2023-06-10T10:18:48;8.05;;;5.40;;
73859;SDS011;62197;51.632;13.700;2023-06-10T10:21:18;6.55;;;4.50;;
73859;SDS011;62197;51.632;13.700;2023-06-10T10:23:53;7.07;;;5.35;;
73859;SDS011;62197;51.632;13.700;2023-06-10T10:26:34;8.65;;;5.28;;
73859;SDS011;62197;51.632;13.700;2023-06-10T10:29:24;7.70;;;5.10;;
73859;SDS011;62197;51.632;13.700;2023-06-10T10:31:52;6.40;;;5.75;;
73859;SDS011;62197;51.632;13.700;2023-06-10T10:34:23;7.05;;;5.22;;
73859;SDS011;62197;51.632;13.700;2023-06-10T10:36:54;8.05;;;6.30;;
73859;SDS011;62197;51.632;13.700;2023-06-10T10:39:20;8.88;;;6.20;;
73859;SDS011;62197;51.632;13.700;2023-06-10T10:41:46;8.43;;;5.43;;
73859;SDS011;62197;51.632;13.700;2023-06-10T10:44:12;8.27;;;6.63;;
73859;SDS011;62197;51.632;13.700;2023-06-10T10:46:42;6.85;;;5.75;;
73859;SDS011;62197;51.632;13.700;2023-06-10T10:49:09;6.05;;;5.45;;
73859;SDS011;62197;51.632;13.700;2023-06-10T10:51:36;6.30;;;5.70;;
73859;SDS011;62197;51.632;13.700;2023-06-10T10:54:11;7.85;;;5.53;;
73859;SDS011;62197;51.632;13.700;2023-06-10T10:56:38;6.85;;;4.82;;
73859;SDS011;62197;51.632;13.700;2023-06-10T10:59:04;6.97;;;5.20;;
73859;SDS011;62197;51.632;13.700;2023-06-10T11:01:40;5.80;;;4.68;;
73859;SDS011;62197;51.632;13.700;2023-06-10T11:04:10;5.25;;;4.45;;
73859;SDS011;62197;51.632;13.700;2023-06-10T11:06:35;6.85;;;5.18;;
73859;SDS011;62197;51.632;13.700;2023-06-10T11:09:01;5.85;;;4.78;;
73859;SDS011;62197;51.632;13.700;2023-06-10T11:14:15;6.13;;;5.05;;
73859;SDS011;62197;51.632;13.700;2023-06-10T11:16:53;5.50;;;4.65;;
73859;SDS011;62197;51.632;13.700;2023-06-10T11:19:34;6.88;;;4.50;;
73859;SDS011;62197;51.632;13.700;2023-06-10T11:22:01;7.00;;;4.47;;
73859;SDS011;62197;51.632;13.700;2023-06-10T11:24:40;5.50;;;4.30;;
73859;SDS011;62197;51.632;13.700;2023-06-10T11:27:18;6.75;;;4.32;;
73859;SDS011;62197;51.632;13.700;2023-06-10T11:29:55;6.35;;;4.40;;
73859;SDS011;62197;51.632;13.700;2023-06-10T11:32:43;7.50;;;4.45;;
73859;SDS011;62197;51.632;13.700;2023-06-10T11:35:09;5.13;;;4.28;;
73859;SDS011;62197;51.632;13.700;2023-06-10T11:37:35;8.20;;;4.68;;
73859;SDS011;62197;51.632;13.700;2023-06-10T11:40:01;6.75;;;4.28;;
73859;SDS011;62197;51.632;13.700;2023-06-10T11:42:27;5.63;;;4.22;;
73859;SDS011;62197;51.632;13.700;2023-06-10T11:44:53;7.05;;;4.90;;
73859;SDS011;62197;51.632;13.700;2023-06-10T11:47:20;5.57;;;4.70;;
73859;SDS011;62197;51.632;13.700;2023-06-10T11:49:55;8.18;;;4.57;;
73859;SDS011;62197;51.632;13.700;2023-06-10T11:52:28;6.88;;;4.10;;
73859;SDS011;62197;51.632;13.700;2023-06-10T11:54:55;8.70;;;4.47;;
73859;SDS011;62197;51.632;13.700;2023-06-10T11:57:20;5.05;;;3.88;;
73859;SDS011;62197;51.632;13.700;2023-06-10T11:59:46;7.80;;;4.15;;
73859;SDS011;62197;51.632;13.700;2023-06-10T12:02:17;6.28;;;3.88;;
73859;SDS011;62197;51.632;13.700;2023-06-10T12:04:44;5.13;;;4.22;;
73859;SDS011;62197;51.632;13.700;2023-06-10T12:07:14;6.05;;;4.03;;
73859;SDS011;62197;51.632;13.700;2023-06-10T12:09:43;7.90;;;4.22;;
73859;SDS011;62197;51.632;13.700;2023-06-10T12:12:08;6.53;;;4.05;;
73859;SDS011;62197;51.632;13.700;2023-06-10T12:14:51;6.07;;;3.97;;
73859;SDS011;62197;51.632;13.700;2023-06-10T12:17:19;7.13;;;4.00;;
73859;SDS011;62197;51.632;13.700;2023-06-10T12:19:46;6.30;;;3.97;;
73859;SDS011;62197;51.632;13.700;2023-06-10T12:22:12;7.50;;;4.30;;
73859;SDS011;62197;51.632;13.700;2023-06-10T12:24:57;5.72;;;3.88;;
73859;SDS011;62197;51.632;13.700;2023-06-10T12:27:28;5.30;;;3.78;;
73859;SDS011;62197;51.632;13.700;2023-06-10T12:29:54;4.85;;;3.75;;
73859;SDS011;62197;51.632;13.700;2023-06-10T12:32:20;4.32;;;3.92;;
73859;SDS011;62197;51.632;13.700;2023-06-10T12:34:54;5.65;;;4.35;;
73859;SDS011;62197;51.632;13.700;2023-06-10T12:37:28;7.53;;;4.57;;
73859;SDS011;62197;51.632;13.700;2023-06-10T12:39:54;5.63;;;4.15;;
73859;SDS011;62197;51.632;13.700;2023-06-10T12:42:21;9.77;;;4.20;;
73859;SDS011;62197;51.632;13.700;2023-06-10T12:44:53;7.95;;;3.88;;
73859;SDS011;62197;51.632;13.700;2023-06-10T12:47:19;6.30;;;3.90;;
73859;SDS011;62197;51.632;13.700;2023-06-10T12:49:45;5.15;;;3.80;;
73859;SDS011;62197;51.632;13.700;2023-06-10T12:52:10;7.35;;;3.92;;
73859;SDS011;62197;51.632;13.700;2023-06-10T12:54:36;5.90;;;3.90;;
73859;SDS011;62197;51.632;13.700;2023-06-10T12:57:02;6.65;;;4.00;;
73859;SDS011;62197;51.632;13.700;2023-06-10T12:59:27;7.72;;;4.60;;
73859;SDS011;62197;51.632;13.700;2023-06-10T13:01:53;6.55;;;4.15;;
73859;SDS011;62197;51.632;13.700;2023-06-10T13:04:20;6.50;;;3.90;;
73859;SDS011;62197;51.632;13.700;2023-06-10T13:06:46;5.28;;;4.00;;
73859;SDS011;62197;51.632;13.700;2023-06-10T13:09:12;7.05;;;3.97;;
73859;SDS011;62197;51.632;13.700;2023-06-10T13:11:39;5.80;;;4.00;;
73859;SDS011;62197;51.632;13.700;2023-06-10T13:14:05;8.52;;;4.68;;
73859;SDS011;62197;51.632;13.700;2023-06-10T13:16:31;7.60;;;5.15;;
73859;SDS011;62197;51.632;13.700;2023-06-10T13:18:57;6.93;;;4.10;;
73859;SDS011;62197;51.632;13.700;2023-06-10T13:21:22;5.82;;;4.70;;
73859;SDS011;62197;51.632;13.700;2023-06-10T13:23:48;7.93;;;4.15;;
73859;SDS011;62197;51.632;13.700;2023-06-10T13:26:14;6.50;;;4.15;;
73859;SDS011;62197;51.632;13.700;2023-06-10T13:28:41;6.82;;;5.10;;
73859;SDS011;62197;51.632;13.700;2023-06-10T13:31:07;9.27;;;4.55;;
73859;SDS011;62197;51.632;13.700;2023-06-10T13:33:32;9.70;;;5.03;;
73859;SDS011;62197;51.632;13.700;2023-06-10T13:35:57;6.85;;;4.53;;
73859;SDS011;62197;51.632;13.700;2023-06-10T13:38:23;8.27;;;5.22;;
73859;SDS011;62197;51.632;13.700;2023-06-10T13:40:48;7.88;;;4.95;;
73859;SDS011;62197;51.632;13.700;2023-06-10T13:43:13;8.80;;;4.82;;
73859;SDS011;62197;51.632;13.700;2023-06-10T13:45:40;9.45;;;4.63;;
73859;SDS011;62197;51.632;13.700;2023-06-10T13:48:05;6.75;;;4.30;;
73859;SDS011;62197;51.632;13.700;2023-06-10T13:50:31;5.72;;;4.00;;
73859;SDS011;62197;51.632;13.700;2023-06-10T13:52:56;6.13;;;4.10;;
73859;SDS011;62197;51.632;13.700;2023-06-10T13:55:22;6.15;;;4.07;;
73859;SDS011;62197;51.632;13.700;2023-06-10T13:57:48;6.30;;;4.05;;
73859;SDS011;62197;51.632;13.700;2023-06-10T14:00:14;7.90;;;4.30;;
73859;SDS011;62197;51.632;13.700;2023-06-10T14:02:40;4.38;;;3.95;;
73859;SDS011;62197;51.632;13.700;2023-06-10T14:05:05;7.05;;;4.35;;
73859;SDS011;62197;51.632;13.700;2023-06-10T14:07:31;4.82;;;3.58;;
73859;SDS011;62197;51.632;13.700;2023-06-10T14:09:56;7.20;;;3.80;;
73859;SDS011;62197;51.632;13.700;2023-06-10T14:12:22;5.70;;;3.47;;
73859;SDS011;62197;51.632;13.700;2023-06-10T14:14:48;4.05;;;3.47;;
73859;SDS011;62197;51.632;13.700;2023-06-10T14:17:13;8.07;;;3.53;;
73859;SDS011;62197;51.632;13.700;2023-06-10T14:19:38;5.28;;;3.22;;
73859;SDS011;62197;51.632;13.700;2023-06-10T14:22:05;5.10;;;3.47;;
73859;SDS011;62197;51.632;13.700;2023-06-10T14:24:31;4.10;;;3.03;;
73859;SDS011;62197;51.632;13.700;2023-06-10T14:26:57;5.35;;;3.10;;
73859;SDS011;62197;51.632;13.700;2023-06-10T14:29:23;7.07;;;3.55;;
73859;SDS011;62197;51.632;13.700;2023-06-10T14:31:48;4.80;;;3.30;;
73859;SDS011;62197;51.632;13.700;2023-06-10T14:34:14;4.32;;;3.17;;